Aruana, Brazil
Current Conditions -  °F | °C
As of 2:00 PM on Friday 24 Oct 2014 (Local Time) from SBAN Reporting Station
Thunderstorm Thunderstorm  
Wind Chill: 72°   Ceiling: 8000
Heat Index: 72°   Visibility: 6mi
Dew Point: 59°   Wind: 6mph
Humidity: 64%   Direction: 10°N
Pressure: 30.09"   Gusts: NA
Location:  14.92°S, 51.08°W
Report Text: SBAN 241600Z 01005KT 9999 TS VCSH SCT035 FEW040CB BKN080 22/15 Q1019
Loading
Personal Weather Stations






























Interactive Weather Map
Tropical Storm Tracking
New forecast layout! Learn more

10-Day Weather Forecast

Advertisements
Track Severe Weather on mobile